Portada
METAR-TAF:

METAR-TAF

Aeroports :

Aeroport de Rabat

Rabat, Marroc

latitud: 34-03N, longitud: 006-46W, altitud: 84 m

Observació

L'informe es va fer fa 19 minuts, a les 15:00 UTC
Vent 9 kt del Oest, variant entre Oest/Sud-Oest i Nord/Nord-Oest
Temperatura 19°C
Humitat 56%
Pressió 1014 hPa
Visibilitat: 8000 m
Núvols disperses a una alçada de 1500 ft
Cel ennuvolat a una alçada de 2300 ft

METAR: GMME 191500Z 28009KT 250V330 8000 SCT015 BKN023 19/10 Q1014 NOSIG

Hora: 16:19 (15:19 UTC)

Pronòstic

L'informe es va fer fa 4 hores i 19 minuts, a les 11:00 UTC
Pronòstic vàlid del 19 a les 12 UTC al 20 a les 18 UTC
Vent 10 kt del Oest
Visibilitat: 8000 m
Núvols disperses a una alçada de 1500 ft
Núvols disperses a una alçada de 2000 ft
Cel ennuvolat a una alçada de 10000 ft
Temporalment
l' 19 a les 22 UTC al 20 a les 13 UTC
Vent 6 kt del Nord/Nord-Oest

TAF: GMME 191100Z 1912/2018 26010KT 8000 SCT015 SCT020 BKN100 TEMPO 1922/2013 34006KT

Observacions i pronòstics meteorològics de més de 4000 aeroports (METAR i TAF).

Les estacions disponibles són els punts grocs i vermells al mapa.

Posi el ratolí al punt desitjat per veure el nom de l'estació.

Feu clic per veure les observacions i els pronòstics meteorològics.

Per canviar el mapa: feu clic els botons verds amb una creu de color negre per apropar; al botó verd amb un guió per allunyar la imatge; o en les fletxes verdes per a mapes adjacents.


METAR-TAF: